<?xml version="1.0" encoding="UTF-8" standalone="no" ?>
<gpx xmlns="http://www.topografix.com/GPX/1/1" xmlns:xsi="http://www.w3.org/2001/XMLSchema-instance" xsi:schemaLocation="http://www.topografix.com/GPX/1/1 http://www.topografix.com/GPX/1/1/gpx.xsd" version="1.1" creator="VisuGPX - https://www.visugpx.com">
  <metadata>
    <name>Gravieres La Pontiere</name>
    <desc><![CDATA[Passage sur cet ancien pont moyen âgeux sur le Chassezac, reliant les Salelles à Gravières, ouvrage emporté par les crues et remplacé par un passage submersible. 
]]></desc>
  </metadata>
  <trk>
    <name><![CDATA[2013-04-19-01 Gravieres La Pontiere]]></name>
    <trkseg>
      <trkpt lat="44.42683" lon="4.09652">
        <ele>228</ele>
        <time>2013-04-19T13:20:26Z</time>
      </trkpt>
      <trkpt lat="44.42678" lon="4.09628">
        <ele>212</ele>
        <time>2013-04-19T13:21:29Z</time>
      </trkpt>
      <trkpt lat="44.42661" lon="4.09628">
        <ele>214</ele>
        <time>2013-04-19T13:21:51Z</time>
      </trkpt>
      <trkpt lat="44.42643" lon="4.09632">
        <ele>211</ele>
        <time>2013-04-19T13:22:12Z</time>
      </trkpt>
      <trkpt lat="44.42627" lon="4.09638">
        <ele>212</ele>
        <time>2013-04-19T13:22:28Z</time>
      </trkpt>
      <trkpt lat="44.4261" lon="4.09644">
        <ele>215</ele>
        <time>2013-04-19T13:22:43Z</time>
      </trkpt>
      <trkpt lat="44.42593" lon="4.09651">
        <ele>211</ele>
        <time>2013-04-19T13:23:01Z</time>
      </trkpt>
      <trkpt lat="44.42577" lon="4.09659">
        <ele>205</ele>
        <time>2013-04-19T13:23:24Z</time>
      </trkpt>
      <trkpt lat="44.42562" lon="4.09673">
        <ele>211</ele>
        <time>2013-04-19T13:24:20Z</time>
      </trkpt>
      <trkpt lat="44.42547" lon="4.09686">
        <ele>208</ele>
        <time>2013-04-19T13:25:08Z</time>
      </trkpt>
      <trkpt lat="44.42529" lon="4.09689">
        <ele>207</ele>
        <time>2013-04-19T13:26:02Z</time>
      </trkpt>
      <trkpt lat="44.42513" lon="4.097">
        <ele>211</ele>
        <time>2013-04-19T13:27:28Z</time>
      </trkpt>
      <trkpt lat="44.42498" lon="4.09713">
        <ele>208</ele>
        <time>2013-04-19T13:28:05Z</time>
      </trkpt>
      <trkpt lat="44.42484" lon="4.09726">
        <ele>207</ele>
        <time>2013-04-19T13:28:39Z</time>
      </trkpt>
      <trkpt lat="44.42471" lon="4.09744">
        <ele>207</ele>
        <time>2013-04-19T13:29:04Z</time>
      </trkpt>
      <trkpt lat="44.42456" lon="4.09756">
        <ele>205</ele>
        <time>2013-04-19T13:29:36Z</time>
      </trkpt>
      <trkpt lat="44.42442" lon="4.09771">
        <ele>212</ele>
        <time>2013-04-19T13:30:38Z</time>
      </trkpt>
      <trkpt lat="44.42431" lon="4.09791">
        <ele>206</ele>
        <time>2013-04-19T13:31:04Z</time>
      </trkpt>
      <trkpt lat="44.42417" lon="4.09805">
        <ele>202</ele>
        <time>2013-04-19T13:31:25Z</time>
      </trkpt>
      <trkpt lat="44.42402" lon="4.09817">
        <ele>199</ele>
        <time>2013-04-19T13:31:46Z</time>
      </trkpt>
      <trkpt lat="44.42391" lon="4.09835">
        <ele>192</ele>
        <time>2013-04-19T13:32:06Z</time>
      </trkpt>
      <trkpt lat="44.42384" lon="4.09857">
        <ele>198</ele>
        <time>2013-04-19T13:32:21Z</time>
      </trkpt>
      <trkpt lat="44.42382" lon="4.09882">
        <ele>201</ele>
        <time>2013-04-19T13:33:02Z</time>
      </trkpt>
      <trkpt lat="44.42369" lon="4.09898">
        <ele>197</ele>
        <time>2013-04-19T13:33:32Z</time>
      </trkpt>
      <trkpt lat="44.42358" lon="4.09917">
        <ele>193</ele>
        <time>2013-04-19T13:33:59Z</time>
      </trkpt>
      <trkpt lat="44.4235" lon="4.09939">
        <ele>190</ele>
        <time>2013-04-19T13:34:27Z</time>
      </trkpt>
      <trkpt lat="44.42336" lon="4.09955">
        <ele>195</ele>
        <time>2013-04-19T13:35:05Z</time>
      </trkpt>
      <trkpt lat="44.4232" lon="4.09963">
        <ele>197</ele>
        <time>2013-04-19T13:35:55Z</time>
      </trkpt>
      <trkpt lat="44.42307" lon="4.0998">
        <ele>195</ele>
        <time>2013-04-19T13:36:28Z</time>
      </trkpt>
      <trkpt lat="44.42292" lon="4.09993">
        <ele>192</ele>
        <time>2013-04-19T13:36:56Z</time>
      </trkpt>
      <trkpt lat="44.42276" lon="4.10005">
        <ele>192</ele>
        <time>2013-04-19T13:37:39Z</time>
      </trkpt>
      <trkpt lat="44.4226" lon="4.10015">
        <ele>193</ele>
        <time>2013-04-19T13:38:29Z</time>
      </trkpt>
      <trkpt lat="44.42246" lon="4.10031">
        <ele>184</ele>
        <time>2013-04-19T13:39:22Z</time>
      </trkpt>
      <trkpt lat="44.42229" lon="4.10028">
        <ele>172</ele>
        <time>2013-04-19T13:40:21Z</time>
      </trkpt>
      <trkpt lat="44.42216" lon="4.10046">
        <ele>172</ele>
        <time>2013-04-19T13:41:08Z</time>
      </trkpt>
      <trkpt lat="44.42199" lon="4.10041">
        <ele>173</ele>
        <time>2013-04-19T13:41:41Z</time>
      </trkpt>
      <trkpt lat="44.42182" lon="4.10039">
        <ele>173</ele>
        <time>2013-04-19T13:42:16Z</time>
      </trkpt>
      <trkpt lat="44.42172" lon="4.10018">
        <ele>169</ele>
        <time>2013-04-19T13:46:28Z</time>
      </trkpt>
      <trkpt lat="44.4216" lon="4.1">
        <ele>170</ele>
        <time>2013-04-19T13:47:33Z</time>
      </trkpt>
      <trkpt lat="44.42152" lon="4.09978">
        <ele>168</ele>
        <time>2013-04-19T13:49:25Z</time>
      </trkpt>
      <trkpt lat="44.42134" lon="4.0998">
        <ele>174</ele>
        <time>2013-04-19T13:50:05Z</time>
      </trkpt>
      <trkpt lat="44.42119" lon="4.09992">
        <ele>167</ele>
        <time>2013-04-19T13:50:22Z</time>
      </trkpt>
      <trkpt lat="44.42105" lon="4.10006">
        <ele>168</ele>
        <time>2013-04-19T13:50:37Z</time>
      </trkpt>
      <trkpt lat="44.42087" lon="4.10009">
        <ele>166</ele>
        <time>2013-04-19T13:51:34Z</time>
      </trkpt>
      <trkpt lat="44.42071" lon="4.10018">
        <ele>169</ele>
        <time>2013-04-19T13:51:52Z</time>
      </trkpt>
      <trkpt lat="44.42055" lon="4.1003">
        <ele>175</ele>
        <time>2013-04-19T13:52:53Z</time>
      </trkpt>
      <trkpt lat="44.42039" lon="4.1004">
        <ele>169</ele>
        <time>2013-04-19T13:53:10Z</time>
      </trkpt>
      <trkpt lat="44.42022" lon="4.10047">
        <ele>164</ele>
        <time>2013-04-19T13:53:27Z</time>
      </trkpt>
      <trkpt lat="44.42005" lon="4.10053">
        <ele>168</ele>
        <time>2013-04-19T13:53:48Z</time>
      </trkpt>
      <trkpt lat="44.41988" lon="4.10058">
        <ele>174</ele>
        <time>2013-04-19T13:54:15Z</time>
      </trkpt>
      <trkpt lat="44.41971" lon="4.10065">
        <ele>176</ele>
        <time>2013-04-19T13:56:08Z</time>
      </trkpt>
      <trkpt lat="44.41954" lon="4.1007">
        <ele>175</ele>
        <time>2013-04-19T13:56:27Z</time>
      </trkpt>
      <trkpt lat="44.41937" lon="4.10074">
        <ele>177</ele>
        <time>2013-04-19T13:56:45Z</time>
      </trkpt>
      <trkpt lat="44.41922" lon="4.10087">
        <ele>176</ele>
        <time>2013-04-19T13:57:05Z</time>
      </trkpt>
      <trkpt lat="44.41907" lon="4.10098">
        <ele>173</ele>
        <time>2013-04-19T13:57:23Z</time>
      </trkpt>
      <trkpt lat="44.41892" lon="4.1011">
        <ele>169</ele>
        <time>2013-04-19T13:57:41Z</time>
      </trkpt>
      <trkpt lat="44.41876" lon="4.10122">
        <ele>168</ele>
        <time>2013-04-19T13:57:57Z</time>
      </trkpt>
      <trkpt lat="44.4186" lon="4.10133">
        <ele>169</ele>
        <time>2013-04-19T13:58:17Z</time>
      </trkpt>
      <trkpt lat="44.41845" lon="4.10144">
        <ele>170</ele>
        <time>2013-04-19T13:58:35Z</time>
      </trkpt>
      <trkpt lat="44.41827" lon="4.10143">
        <ele>165</ele>
        <time>2013-04-19T13:58:59Z</time>
      </trkpt>
      <trkpt lat="44.4181" lon="4.10137">
        <ele>169</ele>
        <time>2013-04-19T13:59:19Z</time>
      </trkpt>
      <trkpt lat="44.41792" lon="4.10136">
        <ele>166</ele>
        <time>2013-04-19T13:59:37Z</time>
      </trkpt>
      <trkpt lat="44.41774" lon="4.10133">
        <ele>165</ele>
        <time>2013-04-19T13:59:56Z</time>
      </trkpt>
      <trkpt lat="44.41757" lon="4.1013">
        <ele>167</ele>
        <time>2013-04-19T14:00:13Z</time>
      </trkpt>
      <trkpt lat="44.41741" lon="4.10118">
        <ele>168</ele>
        <time>2013-04-19T14:00:29Z</time>
      </trkpt>
      <trkpt lat="44.41725" lon="4.1011">
        <ele>170</ele>
        <time>2013-04-19T14:00:47Z</time>
      </trkpt>
      <trkpt lat="44.41708" lon="4.10104">
        <ele>170</ele>
        <time>2013-04-19T14:01:06Z</time>
      </trkpt>
      <trkpt lat="44.41692" lon="4.10113">
        <ele>161</ele>
        <time>2013-04-19T14:01:24Z</time>
      </trkpt>
      <trkpt lat="44.41674" lon="4.1011">
        <ele>161</ele>
        <time>2013-04-19T14:01:45Z</time>
      </trkpt>
      <trkpt lat="44.41657" lon="4.10109">
        <ele>166</ele>
        <time>2013-04-19T14:02:06Z</time>
      </trkpt>
      <trkpt lat="44.41641" lon="4.10122">
        <ele>174</ele>
        <time>2013-04-19T14:02:22Z</time>
      </trkpt>
      <trkpt lat="44.41626" lon="4.1011">
        <ele>170</ele>
        <time>2013-04-19T14:03:10Z</time>
      </trkpt>
      <trkpt lat="44.41609" lon="4.10112">
        <ele>166</ele>
        <time>2013-04-19T14:03:29Z</time>
      </trkpt>
      <trkpt lat="44.41591" lon="4.10109">
        <ele>174</ele>
        <time>2013-04-19T14:03:49Z</time>
      </trkpt>
      <trkpt lat="44.41575" lon="4.10117">
        <ele>168</ele>
        <time>2013-04-19T14:04:08Z</time>
      </trkpt>
      <trkpt lat="44.41559" lon="4.10126">
        <ele>164</ele>
        <time>2013-04-19T14:04:27Z</time>
      </trkpt>
      <trkpt lat="44.41543" lon="4.10114">
        <ele>163</ele>
        <time>2013-04-19T14:05:13Z</time>
      </trkpt>
      <trkpt lat="44.41526" lon="4.10108">
        <ele>173</ele>
        <time>2013-04-19T14:09:12Z</time>
      </trkpt>
      <trkpt lat="44.41509" lon="4.10114">
        <ele>169</ele>
        <time>2013-04-19T14:09:38Z</time>
      </trkpt>
      <trkpt lat="44.41491" lon="4.1012">
        <ele>172</ele>
        <time>2013-04-19T14:10:10Z</time>
      </trkpt>
      <trkpt lat="44.41482" lon="4.10099">
        <ele>174</ele>
        <time>2013-04-19T14:10:55Z</time>
      </trkpt>
      <trkpt lat="44.41474" lon="4.10077">
        <ele>176</ele>
        <time>2013-04-19T14:11:20Z</time>
      </trkpt>
      <trkpt lat="44.41485" lon="4.10058">
        <ele>173</ele>
        <time>2013-04-19T14:11:43Z</time>
      </trkpt>
      <trkpt lat="44.41479" lon="4.10036">
        <ele>172</ele>
        <time>2013-04-19T14:12:03Z</time>
      </trkpt>
      <trkpt lat="44.41473" lon="4.10013">
        <ele>170</ele>
        <time>2013-04-19T14:12:23Z</time>
      </trkpt>
      <trkpt lat="44.41469" lon="4.09989">
        <ele>172</ele>
        <time>2013-04-19T14:12:44Z</time>
      </trkpt>
      <trkpt lat="44.41459" lon="4.09969">
        <ele>172</ele>
        <time>2013-04-19T14:13:02Z</time>
      </trkpt>
      <trkpt lat="44.41449" lon="4.09949">
        <ele>176</ele>
        <time>2013-04-19T14:13:18Z</time>
      </trkpt>
      <trkpt lat="44.41439" lon="4.09928">
        <ele>179</ele>
        <time>2013-04-19T14:13:36Z</time>
      </trkpt>
      <trkpt lat="44.4143" lon="4.09908">
        <ele>182</ele>
        <time>2013-04-19T14:13:52Z</time>
      </trkpt>
      <trkpt lat="44.4142" lon="4.09888">
        <ele>180</ele>
        <time>2013-04-19T14:14:11Z</time>
      </trkpt>
      <trkpt lat="44.4141" lon="4.09868">
        <ele>180</ele>
        <time>2013-04-19T14:14:35Z</time>
      </trkpt>
      <trkpt lat="44.414" lon="4.09848">
        <ele>184</ele>
        <time>2013-04-19T14:14:53Z</time>
      </trkpt>
      <trkpt lat="44.41386" lon="4.09831">
        <ele>188</ele>
        <time>2013-04-19T14:15:14Z</time>
      </trkpt>
      <trkpt lat="44.41395" lon="4.09852">
        <ele>184</ele>
        <time>2013-04-19T14:15:36Z</time>
      </trkpt>
      <trkpt lat="44.41404" lon="4.09873">
        <ele>180</ele>
        <time>2013-04-19T14:15:58Z</time>
      </trkpt>
      <trkpt lat="44.41413" lon="4.09892">
        <ele>178</ele>
        <time>2013-04-19T14:16:16Z</time>
      </trkpt>
      <trkpt lat="44.41424" lon="4.09912">
        <ele>177</ele>
        <time>2013-04-19T14:16:35Z</time>
      </trkpt>
      <trkpt lat="44.41441" lon="4.09918">
        <ele>178</ele>
        <time>2013-04-19T14:17:00Z</time>
      </trkpt>
      <trkpt lat="44.41458" lon="4.09912">
        <ele>177</ele>
        <time>2013-04-19T14:17:18Z</time>
      </trkpt>
      <trkpt lat="44.41473" lon="4.09902">
        <ele>175</ele>
        <time>2013-04-19T14:17:38Z</time>
      </trkpt>
      <trkpt lat="44.41485" lon="4.09883">
        <ele>174</ele>
        <time>2013-04-19T14:17:59Z</time>
      </trkpt>
      <trkpt lat="44.41501" lon="4.09873">
        <ele>174</ele>
        <time>2013-04-19T14:18:17Z</time>
      </trkpt>
      <trkpt lat="44.41517" lon="4.09883">
        <ele>174</ele>
        <time>2013-04-19T14:18:38Z</time>
      </trkpt>
      <trkpt lat="44.41535" lon="4.09889">
        <ele>175</ele>
        <time>2013-04-19T14:18:56Z</time>
      </trkpt>
      <trkpt lat="44.41548" lon="4.09873">
        <ele>178</ele>
        <time>2013-04-19T14:19:32Z</time>
      </trkpt>
      <trkpt lat="44.41556" lon="4.09851">
        <ele>173</ele>
        <time>2013-04-19T14:19:54Z</time>
      </trkpt>
      <trkpt lat="44.41564" lon="4.09829">
        <ele>174</ele>
        <time>2013-04-19T14:20:18Z</time>
      </trkpt>
      <trkpt lat="44.41571" lon="4.09806">
        <ele>172</ele>
        <time>2013-04-19T14:20:38Z</time>
      </trkpt>
      <trkpt lat="44.41571" lon="4.09782">
        <ele>179</ele>
        <time>2013-04-19T14:20:52Z</time>
      </trkpt>
      <trkpt lat="44.41569" lon="4.09757">
        <ele>191</ele>
        <time>2013-04-19T14:21:08Z</time>
      </trkpt>
      <trkpt lat="44.41565" lon="4.09733">
        <ele>182</ele>
        <time>2013-04-19T14:21:27Z</time>
      </trkpt>
      <trkpt lat="44.41564" lon="4.09709">
        <ele>186</ele>
        <time>2013-04-19T14:21:48Z</time>
      </trkpt>
      <trkpt lat="44.41557" lon="4.09686">
        <ele>185</ele>
        <time>2013-04-19T14:22:12Z</time>
      </trkpt>
      <trkpt lat="44.41544" lon="4.09669">
        <ele>184</ele>
        <time>2013-04-19T14:22:32Z</time>
      </trkpt>
      <trkpt lat="44.41531" lon="4.09654">
        <ele>180</ele>
        <time>2013-04-19T14:22:52Z</time>
      </trkpt>
      <trkpt lat="44.41522" lon="4.09632">
        <ele>182</ele>
        <time>2013-04-19T14:23:15Z</time>
      </trkpt>
      <trkpt lat="44.41509" lon="4.09616">
        <ele>177</ele>
        <time>2013-04-19T14:23:43Z</time>
      </trkpt>
      <trkpt lat="44.41493" lon="4.09606">
        <ele>176</ele>
        <time>2013-04-19T14:25:32Z</time>
      </trkpt>
      <trkpt lat="44.41478" lon="4.09591">
        <ele>180</ele>
        <time>2013-04-19T14:25:52Z</time>
      </trkpt>
      <trkpt lat="44.41462" lon="4.09581">
        <ele>181</ele>
        <time>2013-04-19T14:26:14Z</time>
      </trkpt>
      <trkpt lat="44.41467" lon="4.09557">
        <ele>192</ele>
        <time>2013-04-19T14:26:54Z</time>
      </trkpt>
      <trkpt lat="44.41477" lon="4.09536">
        <ele>191</ele>
        <time>2013-04-19T14:27:25Z</time>
      </trkpt>
      <trkpt lat="44.4148" lon="4.09512">
        <ele>194</ele>
        <time>2013-04-19T14:27:50Z</time>
      </trkpt>
      <trkpt lat="44.4148" lon="4.09488">
        <ele>188</ele>
        <time>2013-04-19T14:28:11Z</time>
      </trkpt>
      <trkpt lat="44.4147" lon="4.09468">
        <ele>191</ele>
        <time>2013-04-19T14:28:29Z</time>
      </trkpt>
      <trkpt lat="44.41461" lon="4.09447">
        <ele>194</ele>
        <time>2013-04-19T14:28:50Z</time>
      </trkpt>
      <trkpt lat="44.41447" lon="4.09432">
        <ele>195</ele>
        <time>2013-04-19T14:29:10Z</time>
      </trkpt>
      <trkpt lat="44.41431" lon="4.09424">
        <ele>198</ele>
        <time>2013-04-19T14:29:30Z</time>
      </trkpt>
      <trkpt lat="44.41429" lon="4.09399">
        <ele>210</ele>
        <time>2013-04-19T14:30:34Z</time>
      </trkpt>
      <trkpt lat="44.41443" lon="4.09385">
        <ele>206</ele>
        <time>2013-04-19T14:30:56Z</time>
      </trkpt>
      <trkpt lat="44.41458" lon="4.09373">
        <ele>206</ele>
        <time>2013-04-19T14:31:15Z</time>
      </trkpt>
      <trkpt lat="44.41472" lon="4.09359">
        <ele>206</ele>
        <time>2013-04-19T14:31:34Z</time>
      </trkpt>
      <trkpt lat="44.41487" lon="4.0935">
        <ele>203</ele>
        <time>2013-04-19T14:31:49Z</time>
      </trkpt>
      <trkpt lat="44.41502" lon="4.09336">
        <ele>205</ele>
        <time>2013-04-19T14:32:06Z</time>
      </trkpt>
      <trkpt lat="44.41516" lon="4.0932">
        <ele>205</ele>
        <time>2013-04-19T14:32:25Z</time>
      </trkpt>
      <trkpt lat="44.41531" lon="4.09306">
        <ele>205</ele>
        <time>2013-04-19T14:32:44Z</time>
      </trkpt>
      <trkpt lat="44.41544" lon="4.09293">
        <ele>205</ele>
        <time>2013-04-19T14:33:01Z</time>
      </trkpt>
      <trkpt lat="44.41559" lon="4.09281">
        <ele>205</ele>
        <time>2013-04-19T14:33:16Z</time>
      </trkpt>
      <trkpt lat="44.41575" lon="4.09269">
        <ele>204</ele>
        <time>2013-04-19T14:33:35Z</time>
      </trkpt>
      <trkpt lat="44.4159" lon="4.09258">
        <ele>203</ele>
        <time>2013-04-19T14:33:52Z</time>
      </trkpt>
      <trkpt lat="44.41604" lon="4.09242">
        <ele>201</ele>
        <time>2013-04-19T14:34:13Z</time>
      </trkpt>
      <trkpt lat="44.41617" lon="4.09227">
        <ele>196</ele>
        <time>2013-04-19T14:34:33Z</time>
      </trkpt>
      <trkpt lat="44.41632" lon="4.09215">
        <ele>197</ele>
        <time>2013-04-19T14:34:48Z</time>
      </trkpt>
      <trkpt lat="44.41648" lon="4.09203">
        <ele>198</ele>
        <time>2013-04-19T14:35:09Z</time>
      </trkpt>
      <trkpt lat="44.41661" lon="4.09188">
        <ele>201</ele>
        <time>2013-04-19T14:39:05Z</time>
      </trkpt>
      <trkpt lat="44.41677" lon="4.09176">
        <ele>200</ele>
        <time>2013-04-19T14:39:25Z</time>
      </trkpt>
      <trkpt lat="44.4169" lon="4.09159">
        <ele>199</ele>
        <time>2013-04-19T14:39:42Z</time>
      </trkpt>
      <trkpt lat="44.41704" lon="4.09145">
        <ele>199</ele>
        <time>2013-04-19T14:40:00Z</time>
      </trkpt>
      <trkpt lat="44.41718" lon="4.0913">
        <ele>200</ele>
        <time>2013-04-19T14:40:17Z</time>
      </trkpt>
      <trkpt lat="44.41731" lon="4.09115">
        <ele>198</ele>
        <time>2013-04-19T14:40:35Z</time>
      </trkpt>
      <trkpt lat="44.41746" lon="4.09101">
        <ele>200</ele>
        <time>2013-04-19T14:40:51Z</time>
      </trkpt>
      <trkpt lat="44.41761" lon="4.0909">
        <ele>201</ele>
        <time>2013-04-19T14:41:06Z</time>
      </trkpt>
      <trkpt lat="44.41776" lon="4.09077">
        <ele>200</ele>
        <time>2013-04-19T14:41:24Z</time>
      </trkpt>
      <trkpt lat="44.41793" lon="4.09071">
        <ele>204</ele>
        <time>2013-04-19T14:41:42Z</time>
      </trkpt>
      <trkpt lat="44.4181" lon="4.09076">
        <ele>206</ele>
        <time>2013-04-19T14:41:59Z</time>
      </trkpt>
      <trkpt lat="44.41826" lon="4.09084">
        <ele>201</ele>
        <time>2013-04-19T14:42:15Z</time>
      </trkpt>
      <trkpt lat="44.41843" lon="4.09088">
        <ele>199</ele>
        <time>2013-04-19T14:42:36Z</time>
      </trkpt>
      <trkpt lat="44.4186" lon="4.09091">
        <ele>192</ele>
        <time>2013-04-19T14:42:55Z</time>
      </trkpt>
      <trkpt lat="44.41873" lon="4.09109">
        <ele>201</ele>
        <time>2013-04-19T14:46:40Z</time>
      </trkpt>
      <trkpt lat="44.4189" lon="4.09113">
        <ele>202</ele>
        <time>2013-04-19T14:47:04Z</time>
      </trkpt>
      <trkpt lat="44.41907" lon="4.09114">
        <ele>201</ele>
        <time>2013-04-19T14:47:23Z</time>
      </trkpt>
      <trkpt lat="44.41924" lon="4.09119">
        <ele>202</ele>
        <time>2013-04-19T14:47:45Z</time>
      </trkpt>
      <trkpt lat="44.41942" lon="4.09119">
        <ele>206</ele>
        <time>2013-04-19T14:48:08Z</time>
      </trkpt>
      <trkpt lat="44.41959" lon="4.09119">
        <ele>204</ele>
        <time>2013-04-19T14:48:23Z</time>
      </trkpt>
      <trkpt lat="44.41976" lon="4.09125">
        <ele>209</ele>
        <time>2013-04-19T14:48:43Z</time>
      </trkpt>
      <trkpt lat="44.41993" lon="4.09129">
        <ele>213</ele>
        <time>2013-04-19T14:49:06Z</time>
      </trkpt>
      <trkpt lat="44.42011" lon="4.09132">
        <ele>216</ele>
        <time>2013-04-19T14:49:24Z</time>
      </trkpt>
      <trkpt lat="44.42027" lon="4.09138">
        <ele>222</ele>
        <time>2013-04-19T14:49:39Z</time>
      </trkpt>
      <trkpt lat="44.42045" lon="4.09135">
        <ele>215</ele>
        <time>2013-04-19T14:50:01Z</time>
      </trkpt>
      <trkpt lat="44.42062" lon="4.0914">
        <ele>210</ele>
        <time>2013-04-19T14:50:24Z</time>
      </trkpt>
      <trkpt lat="44.42077" lon="4.09154">
        <ele>218</ele>
        <time>2013-04-19T14:51:29Z</time>
      </trkpt>
      <trkpt lat="44.4209" lon="4.0917">
        <ele>220</ele>
        <time>2013-04-19T14:52:12Z</time>
      </trkpt>
      <trkpt lat="44.42106" lon="4.09182">
        <ele>222</ele>
        <time>2013-04-19T14:52:35Z</time>
      </trkpt>
      <trkpt lat="44.42123" lon="4.09187">
        <ele>222</ele>
        <time>2013-04-19T14:52:57Z</time>
      </trkpt>
      <trkpt lat="44.4214" lon="4.09197">
        <ele>226</ele>
        <time>2013-04-19T14:53:33Z</time>
      </trkpt>
      <trkpt lat="44.42156" lon="4.09203">
        <ele>226</ele>
        <time>2013-04-19T14:54:01Z</time>
      </trkpt>
      <trkpt lat="44.42158" lon="4.09228">
        <ele>219</ele>
        <time>2013-04-19T14:56:47Z</time>
      </trkpt>
      <trkpt lat="44.42166" lon="4.0925">
        <ele>221</ele>
        <time>2013-04-19T14:57:43Z</time>
      </trkpt>
      <trkpt lat="44.4216" lon="4.09274">
        <ele>217</ele>
        <time>2013-04-19T14:58:14Z</time>
      </trkpt>
      <trkpt lat="44.42155" lon="4.09297">
        <ele>216</ele>
        <time>2013-04-19T14:58:50Z</time>
      </trkpt>
      <trkpt lat="44.4215" lon="4.09321">
        <ele>212</ele>
        <time>2013-04-19T15:00:30Z</time>
      </trkpt>
      <trkpt lat="44.42168" lon="4.09322">
        <ele>209</ele>
        <time>2013-04-19T15:01:59Z</time>
      </trkpt>
      <trkpt lat="44.42186" lon="4.09322">
        <ele>214</ele>
        <time>2013-04-19T15:02:44Z</time>
      </trkpt>
      <trkpt lat="44.42203" lon="4.09323">
        <ele>211</ele>
        <time>2013-04-19T15:03:03Z</time>
      </trkpt>
      <trkpt lat="44.4222" lon="4.09316">
        <ele>213</ele>
        <time>2013-04-19T15:03:21Z</time>
      </trkpt>
      <trkpt lat="44.42238" lon="4.09313">
        <ele>215</ele>
        <time>2013-04-19T15:03:41Z</time>
      </trkpt>
      <trkpt lat="44.42255" lon="4.09313">
        <ele>219</ele>
        <time>2013-04-19T15:04:01Z</time>
      </trkpt>
      <trkpt lat="44.42272" lon="4.09315">
        <ele>218</ele>
        <time>2013-04-19T15:04:21Z</time>
      </trkpt>
      <trkpt lat="44.42284" lon="4.09334">
        <ele>213</ele>
        <time>2013-04-19T15:04:57Z</time>
      </trkpt>
      <trkpt lat="44.42289" lon="4.09357">
        <ele>216</ele>
        <time>2013-04-19T15:06:24Z</time>
      </trkpt>
      <trkpt lat="44.42282" lon="4.0938">
        <ele>216</ele>
        <time>2013-04-19T15:06:43Z</time>
      </trkpt>
      <trkpt lat="44.4227" lon="4.09399">
        <ele>214</ele>
        <time>2013-04-19T15:07:03Z</time>
      </trkpt>
      <trkpt lat="44.4226" lon="4.09419">
        <ele>214</ele>
        <time>2013-04-19T15:07:22Z</time>
      </trkpt>
      <trkpt lat="44.42252" lon="4.09442">
        <ele>210</ele>
        <time>2013-04-19T15:07:43Z</time>
      </trkpt>
      <trkpt lat="44.42247" lon="4.09465">
        <ele>208</ele>
        <time>2013-04-19T15:08:01Z</time>
      </trkpt>
      <trkpt lat="44.42238" lon="4.09487">
        <ele>210</ele>
        <time>2013-04-19T15:08:17Z</time>
      </trkpt>
      <trkpt lat="44.42226" lon="4.09504">
        <ele>210</ele>
        <time>2013-04-19T15:08:35Z</time>
      </trkpt>
      <trkpt lat="44.42215" lon="4.09523">
        <ele>209</ele>
        <time>2013-04-19T15:08:55Z</time>
      </trkpt>
      <trkpt lat="44.422" lon="4.09536">
        <ele>208</ele>
        <time>2013-04-19T15:09:13Z</time>
      </trkpt>
      <trkpt lat="44.42191" lon="4.09557">
        <ele>206</ele>
        <time>2013-04-19T15:09:31Z</time>
      </trkpt>
      <trkpt lat="44.42179" lon="4.09575">
        <ele>204</ele>
        <time>2013-04-19T15:09:53Z</time>
      </trkpt>
      <trkpt lat="44.42163" lon="4.09585">
        <ele>216</ele>
        <time>2013-04-19T15:13:41Z</time>
      </trkpt>
      <trkpt lat="44.4215" lon="4.096">
        <ele>202</ele>
        <time>2013-04-19T15:14:09Z</time>
      </trkpt>
      <trkpt lat="44.42138" lon="4.0962">
        <ele>194</ele>
        <time>2013-04-19T15:14:26Z</time>
      </trkpt>
      <trkpt lat="44.42128" lon="4.0964">
        <ele>189</ele>
        <time>2013-04-19T15:14:48Z</time>
      </trkpt>
      <trkpt lat="44.42137" lon="4.09661">
        <ele>184</ele>
        <time>2013-04-19T15:15:13Z</time>
      </trkpt>
      <trkpt lat="44.42151" lon="4.09676">
        <ele>185</ele>
        <time>2013-04-19T15:15:32Z</time>
      </trkpt>
      <trkpt lat="44.42167" lon="4.09687">
        <ele>186</ele>
        <time>2013-04-19T15:15:50Z</time>
      </trkpt>
      <trkpt lat="44.42183" lon="4.09695">
        <ele>186</ele>
        <time>2013-04-19T15:16:08Z</time>
      </trkpt>
      <trkpt lat="44.422" lon="4.09702">
        <ele>184</ele>
        <time>2013-04-19T15:16:27Z</time>
      </trkpt>
      <trkpt lat="44.42216" lon="4.09713">
        <ele>182</ele>
        <time>2013-04-19T15:16:47Z</time>
      </trkpt>
      <trkpt lat="44.42213" lon="4.09736">
        <ele>184</ele>
        <time>2013-04-19T15:17:08Z</time>
      </trkpt>
      <trkpt lat="44.42206" lon="4.09759">
        <ele>184</ele>
        <time>2013-04-19T15:17:30Z</time>
      </trkpt>
      <trkpt lat="44.42202" lon="4.09783">
        <ele>180</ele>
        <time>2013-04-19T15:17:52Z</time>
      </trkpt>
      <trkpt lat="44.42207" lon="4.09807">
        <ele>177</ele>
        <time>2013-04-19T15:18:09Z</time>
      </trkpt>
      <trkpt lat="44.4221" lon="4.09831">
        <ele>173</ele>
        <time>2013-04-19T15:18:27Z</time>
      </trkpt>
      <trkpt lat="44.42213" lon="4.09856">
        <ele>172</ele>
        <time>2013-04-19T15:18:54Z</time>
      </trkpt>
      <trkpt lat="44.42201" lon="4.09875">
        <ele>173</ele>
        <time>2013-04-19T15:19:17Z</time>
      </trkpt>
      <trkpt lat="44.42187" lon="4.0989">
        <ele>174</ele>
        <time>2013-04-19T15:19:38Z</time>
      </trkpt>
      <trkpt lat="44.42177" lon="4.0991">
        <ele>172</ele>
        <time>2013-04-19T15:20:06Z</time>
      </trkpt>
      <trkpt lat="44.42173" lon="4.09933">
        <ele>173</ele>
        <time>2013-04-19T15:20:22Z</time>
      </trkpt>
      <trkpt lat="44.42169" lon="4.09958">
        <ele>176</ele>
        <time>2013-04-19T15:20:42Z</time>
      </trkpt>
      <trkpt lat="44.4216" lon="4.09979">
        <ele>176</ele>
        <time>2013-04-19T15:21:06Z</time>
      </trkpt>
      <trkpt lat="44.42151" lon="4.1">
        <ele>172</ele>
        <time>2013-04-19T15:21:31Z</time>
      </trkpt>
      <trkpt lat="44.4216" lon="4.10021">
        <ele>170</ele>
        <time>2013-04-19T15:22:10Z</time>
      </trkpt>
      <trkpt lat="44.42178" lon="4.10023">
        <ele>172</ele>
        <time>2013-04-19T15:22:51Z</time>
      </trkpt>
      <trkpt lat="44.42185" lon="4.10045">
        <ele>171</ele>
        <time>2013-04-19T15:23:45Z</time>
      </trkpt>
      <trkpt lat="44.42199" lon="4.1006">
        <ele>170</ele>
        <time>2013-04-19T15:24:08Z</time>
      </trkpt>
      <trkpt lat="44.42216" lon="4.10054">
        <ele>168</ele>
        <time>2013-04-19T15:24:33Z</time>
      </trkpt>
      <trkpt lat="44.42232" lon="4.10043">
        <ele>172</ele>
        <time>2013-04-19T15:25:09Z</time>
      </trkpt>
      <trkpt lat="44.42249" lon="4.10037">
        <ele>178</ele>
        <time>2013-04-19T15:25:41Z</time>
      </trkpt>
      <trkpt lat="44.42263" lon="4.10022">
        <ele>178</ele>
        <time>2013-04-19T15:26:11Z</time>
      </trkpt>
      <trkpt lat="44.42278" lon="4.1001">
        <ele>183</ele>
        <time>2013-04-19T15:26:55Z</time>
      </trkpt>
      <trkpt lat="44.42295" lon="4.10001">
        <ele>184</ele>
        <time>2013-04-19T15:27:24Z</time>
      </trkpt>
      <trkpt lat="44.4231" lon="4.09987">
        <ele>186</ele>
        <time>2013-04-19T15:27:53Z</time>
      </trkpt>
      <trkpt lat="44.42324" lon="4.09973">
        <ele>187</ele>
        <time>2013-04-19T15:28:18Z</time>
      </trkpt>
      <trkpt lat="44.42341" lon="4.09964">
        <ele>190</ele>
        <time>2013-04-19T15:28:41Z</time>
      </trkpt>
      <trkpt lat="44.42354" lon="4.09946">
        <ele>190</ele>
        <time>2013-04-19T15:29:06Z</time>
      </trkpt>
      <trkpt lat="44.42361" lon="4.09924">
        <ele>193</ele>
        <time>2013-04-19T15:29:34Z</time>
      </trkpt>
      <trkpt lat="44.42374" lon="4.09907">
        <ele>197</ele>
        <time>2013-04-19T15:29:56Z</time>
      </trkpt>
      <trkpt lat="44.42386" lon="4.09888">
        <ele>199</ele>
        <time>2013-04-19T15:30:24Z</time>
      </trkpt>
      <trkpt lat="44.42386" lon="4.09863">
        <ele>196</ele>
        <time>2013-04-19T15:30:55Z</time>
      </trkpt>
      <trkpt lat="44.42393" lon="4.09841">
        <ele>199</ele>
        <time>2013-04-19T15:31:19Z</time>
      </trkpt>
      <trkpt lat="44.42406" lon="4.09825">
        <ele>205</ele>
        <time>2013-04-19T15:31:41Z</time>
      </trkpt>
      <trkpt lat="44.42421" lon="4.09811">
        <ele>205</ele>
        <time>2013-04-19T15:32:04Z</time>
      </trkpt>
      <trkpt lat="44.42434" lon="4.09795">
        <ele>204</ele>
        <time>2013-04-19T15:32:27Z</time>
      </trkpt>
      <trkpt lat="44.42446" lon="4.09777">
        <ele>203</ele>
        <time>2013-04-19T15:33:09Z</time>
      </trkpt>
      <trkpt lat="44.42461" lon="4.09763">
        <ele>204</ele>
        <time>2013-04-19T15:38:08Z</time>
      </trkpt>
      <trkpt lat="44.42475" lon="4.09748">
        <ele>204</ele>
        <time>2013-04-19T15:38:41Z</time>
      </trkpt>
      <trkpt lat="44.42488" lon="4.09732">
        <ele>204</ele>
        <time>2013-04-19T15:39:09Z</time>
      </trkpt>
      <trkpt lat="44.42501" lon="4.09715">
        <ele>204</ele>
        <time>2013-04-19T15:39:39Z</time>
      </trkpt>
      <trkpt lat="44.42516" lon="4.09704">
        <ele>207</ele>
        <time>2013-04-19T15:39:57Z</time>
      </trkpt>
      <trkpt lat="44.42532" lon="4.09693">
        <ele>209</ele>
        <time>2013-04-19T15:40:17Z</time>
      </trkpt>
      <trkpt lat="44.42549" lon="4.09693">
        <ele>213</ele>
        <time>2013-04-19T15:40:51Z</time>
      </trkpt>
      <trkpt lat="44.42564" lon="4.09679">
        <ele>217</ele>
        <time>2013-04-19T15:41:17Z</time>
      </trkpt>
      <trkpt lat="44.42578" lon="4.09667">
        <ele>218</ele>
        <time>2013-04-19T15:41:39Z</time>
      </trkpt>
      <trkpt lat="44.42595" lon="4.09658">
        <ele>220</ele>
        <time>2013-04-19T15:41:57Z</time>
      </trkpt>
      <trkpt lat="44.4261" lon="4.09648">
        <ele>219</ele>
        <time>2013-04-19T15:42:18Z</time>
      </trkpt>
      <trkpt lat="44.42627" lon="4.09642">
        <ele>220</ele>
        <time>2013-04-19T15:42:37Z</time>
      </trkpt>
      <trkpt lat="44.42644" lon="4.09635">
        <ele>219</ele>
        <time>2013-04-19T15:42:58Z</time>
      </trkpt>
      <trkpt lat="44.42661" lon="4.09628">
        <ele>218</ele>
        <time>2013-04-19T15:43:20Z</time>
      </trkpt>
      <trkpt lat="44.42678" lon="4.0963">
        <ele>221</ele>
        <time>2013-04-19T15:43:38Z</time>
      </trkpt>
      <trkpt lat="44.42696" lon="4.09633">
        <ele>223</ele>
        <time>2013-04-19T15:43:59Z</time>
      </trkpt>
      <trkpt lat="44.42702" lon="4.09642">
        <ele>225</ele>
        <time>2013-04-19T15:44:35Z</time>
      </trkpt>
    </trkseg>
  </trk>
</gpx>